createdAt,value
2023-02-17T00:00:55.901Z,5.90
2023-02-17T00:03:25.708Z,6.00
2023-02-17T00:06:11.869Z,5.90
2023-02-17T00:08:39.961Z,6.00
2023-02-17T00:11:08.042Z,6.00
2023-02-17T00:13:35.996Z,6.10
2023-02-17T00:16:08.299Z,6.10
2023-02-17T00:18:37.768Z,6.20
2023-02-17T00:21:15.924Z,6.20
2023-02-17T00:23:43.874Z,6.20
2023-02-17T00:26:11.799Z,6.20
2023-02-17T00:28:39.881Z,6.10
2023-02-17T00:31:08.803Z,6.10
2023-02-17T00:33:38.278Z,6.00
2023-02-17T00:36:07.247Z,5.90
2023-02-17T00:38:37.590Z,5.80
2023-02-17T00:41:05.802Z,5.90
2023-02-17T00:43:33.780Z,5.90
2023-02-17T00:46:04.241Z,5.90
2023-02-17T00:48:35.286Z,5.90
2023-02-17T00:51:04.774Z,5.90
2023-02-17T00:53:32.861Z,5.80
2023-02-17T00:56:00.872Z,5.90
2023-02-17T00:58:28.851Z,5.90
2023-02-17T01:00:58.273Z,5.90
2023-02-17T01:03:26.248Z,5.80
2023-02-17T01:05:54.507Z,5.90
2023-02-17T01:08:24.135Z,5.80
2023-02-17T01:10:52.404Z,5.90
2023-02-17T01:13:20.468Z,6.00
2023-02-17T01:15:49.140Z,5.80
2023-02-17T01:18:17.157Z,5.90
2023-02-17T01:20:45.110Z,5.70
2023-02-17T01:23:13.169Z,5.60
2023-02-17T01:25:43.319Z,5.70
2023-02-17T01:28:12.567Z,5.80
2023-02-17T01:30:40.483Z,5.60
2023-02-17T01:33:08.418Z,5.80
2023-02-17T01:35:39.769Z,5.70
2023-02-17T01:38:07.790Z,5.80
2023-02-17T01:40:35.725Z,5.80
2023-02-17T01:43:05.046Z,5.70
2023-02-17T01:45:38.610Z,5.80
2023-02-17T01:48:08.838Z,5.80
2023-02-17T01:50:38.901Z,5.90
2023-02-17T01:53:06.841Z,5.90
2023-02-17T01:55:37.034Z,5.80
2023-02-17T01:58:06.454Z,5.70
2023-02-17T02:00:34.680Z,5.80
2023-02-17T02:03:03.025Z,5.80
2023-02-17T02:05:31.040Z,5.70
2023-02-17T02:07:58.986Z,5.80
2023-02-17T02:10:29.951Z,5.90
2023-02-17T02:12:57.860Z,5.90
2023-02-17T02:15:30.441Z,5.80
2023-02-17T02:18:06.406Z,5.80
2023-02-17T02:20:45.077Z,5.90
2023-02-17T02:23:54.733Z,5.90
2023-02-17T02:26:42.993Z,5.60
2023-02-17T02:29:35.632Z,5.70
2023-02-17T02:32:19.032Z,5.70
2023-02-17T02:34:56.226Z,5.70
2023-02-17T02:37:26.241Z,5.70
2023-02-17T02:39:54.875Z,5.70
2023-02-17T02:42:23.869Z,5.70
2023-02-17T02:44:51.818Z,5.70
2023-02-17T02:47:45.820Z,5.60
2023-02-17T02:50:14.994Z,5.60
2023-02-17T02:52:48.916Z,5.50
2023-02-17T02:55:17.864Z,5.60
2023-02-17T02:57:48.553Z,5.70
2023-02-17T03:00:19.676Z,5.70
2023-02-17T03:02:52.366Z,5.60
2023-02-17T03:05:24.861Z,5.70
2023-02-17T03:07:55.742Z,5.80
2023-02-17T03:10:23.618Z,5.50
2023-02-17T03:12:51.603Z,5.70
2023-02-17T03:15:21.081Z,5.80
2023-02-17T03:17:50.307Z,5.90
2023-02-17T03:20:18.143Z,5.90
2023-02-17T03:22:47.049Z,5.90
2023-02-17T03:25:14.911Z,6.00
2023-02-17T03:27:42.740Z,6.10
2023-02-17T03:30:11.561Z,5.90
2023-02-17T03:32:39.464Z,5.80
2023-02-17T03:35:09.442Z,5.80
2023-02-17T03:37:37.441Z,5.80
2023-02-17T03:40:05.994Z,5.80
2023-02-17T03:42:33.787Z,5.70
2023-02-17T03:45:01.623Z,5.80
2023-02-17T03:47:29.428Z,5.80
2023-02-17T03:49:57.258Z,5.70
2023-02-17T03:52:26.424Z,5.90
2023-02-17T03:54:54.235Z,5.90
2023-02-17T03:57:22.064Z,5.80
2023-02-17T03:59:49.958Z,5.90
2023-02-17T04:02:17.776Z,6.00
2023-02-17T04:04:45.757Z,6.10
2023-02-17T04:07:13.632Z,6.00
2023-02-17T04:09:43.039Z,6.00
2023-02-17T04:12:10.906Z,6.20
2023-02-17T04:14:38.696Z,6.20
2023-02-17T04:17:06.497Z,6.20
2023-02-17T04:19:34.295Z,6.30
2023-02-17T04:22:02.104Z,6.30
2023-02-17T04:24:29.901Z,6.30
2023-02-17T04:26:59.051Z,6.30
2023-02-17T04:29:26.856Z,6.30
2023-02-17T04:31:54.725Z,6.20
2023-02-17T04:34:22.602Z,6.20
2023-02-17T04:36:50.416Z,6.30
2023-02-17T04:39:18.197Z,6.20
2023-02-17T04:41:46.273Z,6.10
2023-02-17T04:44:15.442Z,6.10
2023-02-17T04:46:43.357Z,6.10
2023-02-17T04:49:11.178Z,6.00
2023-02-17T04:51:39.000Z,6.10
2023-02-17T04:54:06.897Z,6.10
2023-02-17T04:56:34.907Z,6.00
2023-02-17T04:59:02.727Z,6.10
2023-02-17T05:01:31.938Z,6.10
2023-02-17T05:03:59.749Z,6.20
2023-02-17T05:06:27.549Z,6.00
2023-02-17T05:08:55.426Z,6.20
2023-02-17T05:11:23.242Z,6.20
2023-02-17T05:13:51.037Z,6.10
2023-02-17T05:16:18.865Z,6.20
2023-02-17T05:18:48.193Z,6.20
2023-02-17T05:21:16.248Z,6.30
2023-02-17T05:23:44.112Z,6.30
2023-02-17T05:26:12.075Z,6.40
2023-02-17T05:28:39.866Z,6.30
2023-02-17T05:31:07.834Z,6.30
2023-02-17T05:33:35.654Z,6.30
2023-02-17T05:36:06.622Z,6.40
2023-02-17T05:38:34.631Z,6.30
2023-02-17T05:41:02.529Z,6.30
2023-02-17T05:43:30.382Z,6.30
2023-02-17T05:46:01.994Z,6.40
2023-02-17T05:48:29.836Z,6.40
2023-02-17T05:50:57.648Z,6.40
2023-02-17T05:53:26.878Z,6.50
2023-02-17T05:55:54.660Z,6.50
2023-02-17T05:58:22.575Z,6.50
2023-02-17T06:00:50.314Z,6.40
2023-02-17T06:03:18.110Z,6.40
2023-02-17T06:05:46.263Z,6.40
2023-02-17T06:08:14.253Z,6.40
2023-02-17T06:10:44.219Z,6.30
2023-02-17T06:13:12.063Z,6.30
2023-02-17T06:15:39.882Z,6.40
2023-02-17T06:18:07.768Z,6.40
2023-02-17T06:20:35.555Z,6.50
2023-02-17T06:23:03.533Z,6.50
2023-02-17T06:25:31.342Z,6.50
2023-02-17T06:28:00.542Z,6.40
2023-02-17T06:30:28.391Z,6.50
2023-02-17T06:32:56.271Z,6.60
2023-02-17T06:35:24.379Z,6.50
2023-02-17T06:37:52.244Z,6.60
2023-02-17T06:40:20.488Z,6.60
2023-02-17T06:42:48.322Z,6.60
2023-02-17T06:45:17.640Z,6.70
2023-02-17T06:47:45.466Z,6.70
2023-02-17T06:50:13.296Z,6.70
2023-02-17T06:52:41.312Z,6.70
2023-02-17T06:55:09.784Z,6.70
2023-02-17T06:57:37.589Z,6.80
2023-02-17T07:00:06.588Z,6.80
2023-02-17T07:02:36.206Z,6.80
2023-02-17T07:05:04.106Z,6.80
2023-02-17T07:07:31.977Z,6.90
2023-02-17T07:09:59.841Z,6.90
2023-02-17T07:12:28.813Z,6.80
2023-02-17T07:14:56.655Z,6.90
2023-02-17T07:17:24.734Z,6.90
2023-02-17T07:19:53.922Z,6.90
2023-02-17T07:22:21.809Z,6.90
2023-02-17T07:24:49.641Z,6.90
2023-02-17T07:27:17.445Z,6.90
2023-02-17T07:29:45.262Z,7.00
2023-02-17T07:32:13.052Z,7.00
2023-02-17T07:34:40.970Z,7.10
2023-02-17T07:37:10.550Z,7.20
2023-02-17T07:39:38.374Z,7.20
2023-02-17T07:42:07.050Z,7.30
2023-02-17T07:44:35.018Z,7.30
2023-02-17T07:47:03.174Z,7.40
2023-02-17T07:49:31.085Z,7.50
2023-02-17T07:51:58.958Z,7.50
2023-02-17T07:54:28.131Z,7.60
2023-02-17T07:56:55.936Z,7.60
2023-02-17T07:59:23.744Z,7.70
2023-02-17T08:01:51.716Z,7.70
2023-02-17T08:04:19.648Z,7.80
2023-02-17T08:06:47.491Z,7.90
2023-02-17T08:09:32.802Z,7.90
2023-02-17T08:12:19.632Z,8.20
2023-02-17T08:14:47.710Z,8.50
2023-02-17T08:17:15.611Z,8.70
2023-02-17T08:19:48.629Z,8.90
2023-02-17T08:22:17.240Z,8.90
2023-02-17T08:24:45.179Z,8.90
2023-02-17T08:27:14.571Z,8.90
2023-02-17T08:29:42.556Z,8.90
2023-02-17T08:32:10.453Z,8.90
2023-02-17T08:34:38.373Z,8.90
2023-02-17T08:37:43.262Z,8.80
2023-02-17T08:40:11.477Z,8.90
2023-02-17T08:42:40.654Z,8.80
2023-02-17T08:45:08.828Z,8.90
2023-02-17T08:47:36.942Z,8.90
2023-02-17T08:50:08.947Z,8.90
2023-02-17T08:52:36.969Z,9.00
2023-02-17T08:55:05.240Z,9.10
2023-02-17T08:57:33.121Z,9.30
2023-02-17T09:00:04.177Z,9.30
2023-02-17T09:02:33.310Z,9.30
2023-02-17T09:05:01.220Z,9.30
2023-02-17T09:07:29.160Z,9.40
2023-02-17T09:09:56.985Z,9.50
2023-02-17T09:12:24.809Z,9.70
2023-02-17T09:14:52.939Z,9.90
2023-02-17T09:17:22.117Z,10.10
2023-02-17T09:19:49.980Z,10.20
2023-02-17T09:22:31.574Z,10.60
2023-02-17T09:25:00.001Z,10.80
2023-02-17T09:27:27.873Z,11.10
2023-02-17T09:29:58.855Z,11.30
2023-02-17T09:32:28.091Z,11.40
2023-02-17T09:34:55.991Z,11.40
2023-02-17T09:37:24.728Z,11.50
2023-02-17T09:39:52.639Z,11.60
2023-02-17T09:42:21.461Z,11.70
2023-02-17T09:44:51.034Z,11.80
2023-02-17T09:47:20.090Z,11.80
2023-02-17T09:49:51.587Z,11.80
2023-02-17T09:52:21.676Z,11.80
2023-02-17T09:54:54.528Z,11.90
2023-02-17T09:57:24.278Z,11.90
2023-02-17T09:59:54.886Z,11.90
2023-02-17T10:02:26.927Z,11.90
2023-02-17T10:04:56.204Z,11.90
2023-02-17T10:07:26.942Z,11.90
2023-02-17T10:09:56.614Z,12.00
2023-02-17T10:12:26.080Z,12.00
2023-02-17T10:14:55.156Z,12.00
2023-02-17T10:17:25.549Z,12.00
2023-02-17T10:19:55.382Z,12.00
2023-02-17T10:22:24.876Z,12.00
2023-02-17T10:24:52.752Z,12.00
2023-02-17T10:27:29.656Z,12.00
2023-02-17T10:30:05.527Z,11.90
2023-02-17T10:32:34.569Z,11.90
2023-02-17T10:35:15.699Z,11.90
2023-02-17T10:37:48.191Z,11.90
2023-02-17T10:40:19.263Z,12.00
2023-02-17T10:42:47.155Z,12.00
2023-02-17T10:45:21.195Z,12.10
2023-02-17T10:47:49.063Z,12.10
2023-02-17T10:50:20.088Z,12.20
2023-02-17T10:52:49.417Z,12.30
2023-02-17T10:55:23.509Z,12.40
2023-02-17T10:57:53.799Z,12.40
2023-02-17T11:00:22.583Z,12.60
2023-02-17T11:02:51.663Z,12.70
2023-02-17T11:05:24.012Z,12.70
2023-02-17T11:07:58.023Z,12.70
2023-02-17T11:10:28.214Z,12.70
2023-02-17T11:12:58.052Z,12.70
2023-02-17T11:15:28.114Z,12.70
2023-02-17T11:17:56.316Z,12.70
2023-02-17T11:20:35.469Z,12.60
2023-02-17T11:23:10.624Z,12.60
2023-02-17T11:25:38.832Z,12.70
2023-02-17T11:28:08.186Z,12.60
2023-02-17T11:30:36.607Z,12.70
2023-02-17T11:33:14.273Z,12.60
2023-02-17T11:35:49.175Z,12.70
2023-02-17T11:38:19.170Z,12.80
2023-02-17T11:40:53.958Z,12.70
2023-02-17T11:43:21.820Z,12.80
2023-02-17T11:45:54.934Z,12.90
2023-02-17T11:48:33.809Z,13.00
2023-02-17T11:51:03.240Z,13.20
2023-02-17T11:53:39.826Z,13.10
2023-02-17T11:56:12.946Z,13.10
2023-02-17T11:59:01.223Z,13.00
2023-02-17T12:01:46.195Z,13.00
2023-02-17T12:04:24.084Z,13.10
2023-02-17T12:06:59.090Z,13.10
2023-02-17T12:09:30.337Z,13.20
2023-02-17T12:12:05.249Z,13.20
2023-02-17T12:14:51.454Z,13.20
2023-02-17T12:17:21.536Z,13.30
2023-02-17T12:19:53.104Z,13.30
2023-02-17T12:22:21.851Z,13.40
2023-02-17T12:24:59.329Z,13.40
2023-02-17T12:27:34.171Z,13.50
2023-02-17T12:30:14.928Z,13.40
2023-02-17T12:36:31.706Z,13.50
2023-02-17T12:39:01.401Z,13.50
2023-02-17T12:41:32.589Z,13.60
2023-02-17T12:44:02.316Z,13.50
2023-02-17T12:46:31.766Z,13.40
2023-02-17T12:49:01.329Z,13.50
2023-02-17T12:51:31.236Z,13.40
2023-02-17T12:57:43.193Z,13.20
2023-02-17T13:00:17.907Z,13.00
2023-02-17T13:05:54.692Z,12.90
2023-02-17T13:08:23.920Z,12.90
2023-02-17T13:11:01.352Z,12.90
2023-02-17T13:13:31.568Z,12.80
2023-02-17T13:16:04.134Z,12.80
2023-02-17T13:18:33.707Z,12.80
2023-02-17T13:21:02.138Z,12.80
2023-02-17T13:23:35.113Z,12.80
2023-02-17T13:26:17.979Z,12.80
2023-02-17T13:28:47.478Z,12.90
2023-02-17T13:31:17.714Z,12.90
2023-02-17T13:33:47.890Z,12.90
2023-02-17T13:36:18.364Z,13.00
2023-02-17T13:38:59.888Z,13.10
2023-02-17T13:41:28.783Z,13.00
2023-02-17T13:43:58.329Z,13.10
2023-02-17T13:46:27.109Z,13.10
2023-02-17T13:49:03.024Z,13.20
2023-02-17T13:51:31.877Z,13.20
2023-02-17T13:54:06.627Z,13.20
2023-02-17T13:56:34.896Z,13.20
2023-02-17T13:59:11.239Z,13.20
2023-02-17T14:01:41.935Z,13.20
2023-02-17T14:04:20.197Z,13.20
2023-02-17T14:06:49.807Z,13.20
2023-02-17T14:09:23.347Z,13.20
2023-02-17T14:11:51.677Z,13.20
2023-02-17T14:14:21.639Z,13.20
2023-02-17T14:16:58.367Z,13.10
2023-02-17T14:19:28.076Z,13.00
2023-02-17T14:22:00.757Z,13.00
2023-02-17T14:24:29.894Z,13.00
2023-02-17T14:26:59.654Z,13.00
2023-02-17T14:29:39.699Z,13.00
2023-02-17T14:32:08.059Z,13.00
2023-02-17T14:34:36.930Z,13.00
2023-02-17T14:37:11.913Z,13.00
2023-02-17T14:39:40.020Z,12.90
2023-02-17T14:42:08.054Z,12.90
2023-02-17T14:44:37.660Z,12.90
2023-02-17T14:47:05.988Z,12.90
2023-02-17T14:49:34.162Z,12.80
2023-02-17T14:52:02.317Z,12.90
2023-02-17T14:54:30.740Z,12.90
2023-02-17T14:57:01.325Z,12.90
2023-02-17T14:59:29.500Z,12.90
2023-02-17T15:01:59.211Z,12.90
2023-02-17T15:04:27.520Z,12.90
2023-02-17T15:06:55.753Z,12.80
2023-02-17T15:09:28.643Z,12.80
2023-02-17T15:11:57.248Z,12.70
2023-02-17T15:14:25.500Z,12.70
2023-02-17T15:17:00.616Z,12.60
2023-02-17T15:19:30.166Z,12.50
2023-02-17T15:22:01.474Z,12.60
2023-02-17T15:24:33.368Z,12.50
2023-02-17T15:27:01.916Z,12.40
2023-02-17T15:29:30.382Z,12.40
2023-02-17T15:32:00.255Z,12.30
2023-02-17T15:34:32.202Z,12.30
2023-02-17T15:37:03.015Z,12.30
2023-02-17T15:39:31.203Z,12.30
2023-02-17T15:42:01.018Z,12.30
2023-02-17T15:44:33.316Z,12.30
2023-02-17T15:47:01.793Z,12.30
2023-02-17T15:49:31.037Z,12.30
2023-02-17T15:51:59.099Z,12.30
2023-02-17T15:54:27.119Z,12.20
2023-02-17T15:56:56.679Z,12.30
2023-02-17T15:59:26.078Z,12.20
2023-02-17T16:01:56.047Z,12.20
2023-02-17T16:04:24.182Z,12.20
2023-02-17T16:06:53.503Z,12.20
2023-02-17T16:09:21.689Z,12.20
2023-02-17T16:11:51.227Z,12.20
2023-02-17T16:14:24.340Z,12.20
2023-02-17T16:16:52.526Z,12.20
2023-02-17T16:19:20.608Z,12.20
2023-02-17T16:21:48.808Z,12.20
2023-02-17T16:24:18.125Z,12.10
2023-02-17T16:26:46.008Z,12.10
2023-02-17T16:29:15.573Z,12.10
2023-02-17T16:31:43.942Z,12.00
2023-02-17T16:34:15.779Z,12.00
2023-02-17T16:36:43.900Z,11.90
2023-02-17T16:39:13.584Z,11.90
2023-02-17T16:41:43.157Z,11.90
2023-02-17T16:44:13.199Z,11.80
2023-02-17T16:46:41.475Z,11.80
2023-02-17T16:49:17.765Z,11.80
2023-02-17T16:51:45.811Z,11.80
2023-02-17T16:54:14.162Z,11.70
2023-02-17T16:56:45.987Z,11.80
2023-02-17T16:59:15.492Z,11.80
2023-02-17T17:01:45.776Z,11.80
2023-02-17T17:04:14.246Z,11.80
2023-02-17T17:06:44.360Z,11.80
2023-02-17T17:09:15.785Z,11.80
2023-02-17T17:11:45.564Z,11.80
2023-02-17T17:14:13.684Z,11.80
2023-02-17T17:16:41.913Z,11.80
2023-02-17T17:19:12.153Z,11.80
2023-02-17T17:21:40.147Z,11.80
2023-02-17T17:24:08.446Z,11.70
2023-02-17T17:26:39.290Z,11.70
2023-02-17T17:29:09.400Z,11.70
2023-02-17T17:31:37.699Z,11.70
2023-02-17T17:34:05.892Z,11.70
2023-02-17T17:36:34.796Z,11.70
2023-02-17T17:39:03.565Z,11.70
2023-02-17T17:41:35.073Z,11.70
2023-02-17T17:44:03.111Z,11.80
2023-02-17T17:46:34.054Z,11.80
2023-02-17T17:49:04.326Z,11.80
2023-02-17T17:51:38.692Z,11.90
2023-02-17T17:54:06.876Z,11.80
2023-02-17T17:56:36.001Z,11.80
2023-02-17T17:59:04.266Z,11.80
2023-02-17T18:01:33.848Z,11.80
2023-02-17T18:04:02.202Z,11.80
2023-02-17T18:06:31.353Z,11.80
2023-02-17T18:09:02.211Z,11.70
2023-02-17T18:11:30.361Z,11.70
2023-02-17T18:13:59.894Z,11.70
2023-02-17T18:16:28.521Z,11.70
2023-02-17T18:18:57.985Z,11.60
2023-02-17T18:21:26.318Z,11.60
2023-02-17T18:23:54.512Z,11.60
2023-02-17T18:26:24.804Z,11.50
2023-02-17T18:28:52.750Z,11.50
2023-02-17T18:31:20.926Z,11.50
2023-02-17T18:33:49.080Z,11.50
2023-02-17T18:36:19.586Z,11.40
2023-02-17T18:38:47.853Z,11.50
2023-02-17T18:41:19.271Z,11.50
2023-02-17T18:43:47.563Z,11.50
2023-02-17T18:46:15.899Z,11.50
2023-02-17T18:48:52.779Z,11.50
2023-02-17T18:51:23.259Z,11.50
2023-02-17T18:53:55.373Z,11.50
2023-02-17T18:56:24.669Z,11.50
2023-02-17T18:58:53.636Z,11.50
2023-02-17T19:01:23.389Z,11.60
2023-02-17T19:03:52.036Z,11.60
2023-02-17T19:06:22.842Z,11.60
2023-02-17T19:08:51.018Z,11.60
2023-02-17T19:11:19.714Z,11.70
2023-02-17T19:13:47.982Z,11.70
2023-02-17T19:16:16.878Z,11.70
2023-02-17T19:18:55.471Z,11.60
2023-02-17T19:21:30.599Z,11.60
2023-02-17T19:23:58.821Z,11.60
2023-02-17T19:26:27.054Z,11.60
2023-02-17T19:28:55.304Z,11.60
2023-02-17T19:34:05.811Z,11.60
2023-02-17T19:36:35.381Z,11.60
2023-02-17T19:39:03.613Z,11.50
2023-02-17T19:41:33.918Z,11.60
2023-02-17T19:44:03.266Z,11.50
2023-02-17T19:46:31.434Z,11.50
2023-02-17T19:48:59.600Z,11.60
2023-02-17T19:51:27.594Z,11.50
2023-02-17T19:53:58.275Z,11.50
2023-02-17T19:56:27.525Z,11.50
2023-02-17T19:58:55.880Z,11.50
2023-02-17T20:01:24.819Z,11.50
2023-02-17T20:03:59.192Z,11.50
2023-02-17T20:06:28.598Z,11.50
2023-02-17T20:08:59.461Z,11.50
2023-02-17T20:11:33.954Z,11.40
2023-02-17T20:14:02.334Z,11.40
2023-02-17T20:16:33.419Z,11.40
2023-02-17T20:19:02.063Z,11.40
2023-02-17T20:21:31.054Z,11.50
2023-02-17T20:24:00.678Z,11.40
2023-02-17T20:26:29.657Z,11.40
2023-02-17T20:28:57.933Z,11.40
2023-02-17T20:31:26.175Z,11.40
2023-02-17T20:33:54.556Z,11.40
2023-02-17T20:36:22.967Z,11.40
2023-02-17T20:38:51.231Z,11.40
2023-02-17T20:41:21.193Z,11.40
2023-02-17T20:43:49.481Z,11.40
2023-02-17T20:46:24.234Z,11.40
2023-02-17T20:48:53.042Z,11.30
2023-02-17T20:51:21.115Z,11.30
2023-02-17T20:53:49.740Z,11.30
2023-02-17T20:56:21.685Z,11.40
2023-02-17T20:58:50.765Z,11.30
2023-02-17T21:01:19.880Z,11.40
2023-02-17T21:03:48.462Z,11.40
2023-02-17T21:06:20.842Z,11.40
2023-02-17T21:08:51.027Z,11.40
2023-02-17T21:11:20.629Z,11.30
2023-02-17T21:13:48.957Z,11.20
2023-02-17T21:16:18.156Z,11.20
2023-02-17T21:18:47.486Z,11.10
2023-02-17T21:21:16.085Z,11.10
2023-02-17T21:23:50.155Z,11.10
2023-02-17T21:26:18.336Z,11.10
2023-02-17T21:28:47.828Z,11.00
2023-02-17T21:31:16.457Z,11.00
2023-02-17T21:33:44.642Z,11.00
2023-02-17T21:36:15.365Z,11.00
2023-02-17T21:38:43.539Z,10.90
2023-02-17T21:41:12.587Z,10.90
2023-02-17T21:43:58.538Z,10.90
2023-02-17T21:46:30.306Z,10.90
2023-02-17T21:48:58.811Z,10.90
2023-02-17T21:51:33.437Z,10.90
2023-02-17T21:54:01.957Z,10.90
2023-02-17T21:56:30.182Z,11.00
2023-02-17T21:59:09.909Z,11.10
2023-02-17T22:01:39.150Z,11.20
2023-02-17T22:04:07.255Z,11.30
2023-02-17T22:06:36.121Z,11.30
2023-02-17T22:09:04.702Z,11.30
2023-02-17T22:11:34.114Z,11.30
2023-02-17T22:14:02.881Z,11.30
2023-02-17T22:16:31.353Z,11.30
2023-02-17T22:19:00.852Z,11.30
2023-02-17T22:21:28.795Z,11.20
2023-02-17T22:23:57.772Z,11.30
2023-02-17T22:26:26.076Z,11.30
2023-02-17T22:28:54.252Z,11.30
2023-02-17T22:31:22.943Z,11.30
2023-02-17T22:33:50.791Z,11.30
2023-02-17T22:36:21.108Z,11.20
2023-02-17T22:38:48.937Z,11.20
2023-02-17T22:41:18.159Z,11.20
2023-02-17T22:43:46.615Z,11.10
2023-02-17T22:46:16.352Z,11.20
2023-02-17T22:48:44.695Z,11.20
2023-02-17T22:51:13.693Z,11.20
2023-02-17T22:53:43.006Z,11.30
2023-02-17T22:56:10.863Z,11.40
2023-02-17T22:58:38.751Z,11.30
2023-02-17T23:01:07.639Z,11.40
2023-02-17T23:03:35.644Z,11.40
2023-02-17T23:06:03.888Z,11.30
2023-02-17T23:08:31.722Z,11.30
2023-02-17T23:11:01.024Z,11.30
2023-02-17T23:13:28.905Z,11.40
2023-02-17T23:15:56.765Z,11.40
2023-02-17T23:18:24.618Z,11.50
2023-02-17T23:20:52.708Z,11.50
2023-02-17T23:23:20.685Z,11.50
2023-02-17T23:25:49.889Z,11.60
2023-02-17T23:28:19.166Z,11.60
2023-02-17T23:30:47.889Z,11.60
2023-02-17T23:33:15.983Z,11.60
2023-02-17T23:35:45.063Z,11.60
2023-02-17T23:38:13.017Z,11.60
2023-02-17T23:40:41.119Z,11.60
2023-02-17T23:43:09.029Z,11.60
2023-02-17T23:45:39.017Z,11.60
2023-02-17T23:48:07.352Z,11.60
2023-02-17T23:50:35.180Z,11.70
2023-02-17T23:53:03.035Z,11.70
2023-02-17T23:55:30.885Z,11.70
2023-02-17T23:57:59.930Z,11.70
